sensor_id;sensor_type;location;lat;lon;timestamp;temperature;humidity
10644;DHT22;5370;50.132;8.626;2022-10-14T00:01:46;14.80;99.90
10644;DHT22;5370;50.132;8.626;2022-10-14T00:04:13;14.80;99.90
10644;DHT22;5370;50.132;8.626;2022-10-14T00:06:38;14.80;99.90
10644;DHT22;5370;50.132;8.626;2022-10-14T00:09:07;14.80;99.90
10644;DHT22;5370;50.132;8.626;2022-10-14T00:11:34;14.80;99.90
10644;DHT22;5370;50.132;8.626;2022-10-14T00:14:07;14.80;99.90
10644;DHT22;5370;50.132;8.626;2022-10-14T00:16:37;14.80;99.90
10644;DHT22;5370;50.132;8.626;2022-10-14T00:19:04;14.80;99.90
10644;DHT22;5370;50.132;8.626;2022-10-14T00:21:31;14.80;99.90
10644;DHT22;5370;50.132;8.626;2022-10-14T00:23:57;14.80;99.90
10644;DHT22;5370;50.132;8.626;2022-10-14T00:26:32;14.80;99.90
10644;DHT22;5370;50.132;8.626;2022-10-14T00:28:59;14.80;99.90
10644;DHT22;5370;50.132;8.626;2022-10-14T00:31:25;14.80;99.90
10644;DHT22;5370;50.132;8.626;2022-10-14T00:33:51;14.80;99.90
10644;DHT22;5370;50.132;8.626;2022-10-14T00:36:18;14.70;99.90
10644;DHT22;5370;50.132;8.626;2022-10-14T00:38:45;14.70;99.90
10644;DHT22;5370;50.132;8.626;2022-10-14T00:41:14;14.70;99.90
10644;DHT22;5370;50.132;8.626;2022-10-14T00:46:36;14.70;99.90
10644;DHT22;5370;50.132;8.626;2022-10-14T00:49:08;14.70;99.90
10644;DHT22;5370;50.132;8.626;2022-10-14T00:51:35;14.70;99.90
10644;DHT22;5370;50.132;8.626;2022-10-14T00:54:01;14.70;99.90
10644;DHT22;5370;50.132;8.626;2022-10-14T00:56:28;14.70;99.90
10644;DHT22;5370;50.132;8.626;2022-10-14T00:58:55;14.70;99.90
10644;DHT22;5370;50.132;8.626;2022-10-14T01:01:21;14.70;99.90
10644;DHT22;5370;50.132;8.626;2022-10-14T01:03:47;14.70;99.90
10644;DHT22;5370;50.132;8.626;2022-10-14T01:12:08;14.70;99.90
10644;DHT22;5370;50.132;8.626;2022-10-14T01:15:21;14.70;99.90
10644;DHT22;5370;50.132;8.626;2022-10-14T01:20:46;14.80;99.90
10644;DHT22;5370;50.132;8.626;2022-10-14T01:31:34;14.80;99.90
10644;DHT22;5370;50.132;8.626;2022-10-14T01:34:05;14.70;99.90
10644;DHT22;5370;50.132;8.626;2022-10-14T01:36:42;14.70;99.90
10644;DHT22;5370;50.132;8.626;2022-10-14T01:39:34;14.70;99.90
10644;DHT22;5370;50.132;8.626;2022-10-14T01:42:05;14.80;99.90
10644;DHT22;5370;50.132;8.626;2022-10-14T01:44:34;14.70;99.90
10644;DHT22;5370;50.132;8.626;2022-10-14T01:47:02;14.70;99.90
10644;DHT22;5370;50.132;8.626;2022-10-14T01:49:51;14.70;99.90
10644;DHT22;5370;50.132;8.626;2022-10-14T01:52:20;14.70;99.90
10644;DHT22;5370;50.132;8.626;2022-10-14T01:54:50;14.70;99.90
10644;DHT22;5370;50.132;8.626;2022-10-14T01:57:23;14.70;99.90
10644;DHT22;5370;50.132;8.626;2022-10-14T01:59:52;14.70;99.90
10644;DHT22;5370;50.132;8.626;2022-10-14T02:02:19;14.70;99.90
10644;DHT22;5370;50.132;8.626;2022-10-14T02:04:44;14.70;99.90
10644;DHT22;5370;50.132;8.626;2022-10-14T02:07:17;14.70;99.90
10644;DHT22;5370;50.132;8.626;2022-10-14T02:15:52;14.70;99.90
10644;DHT22;5370;50.132;8.626;2022-10-14T02:21:04;14.70;99.90
10644;DHT22;5370;50.132;8.626;2022-10-14T02:23:37;14.70;99.90
10644;DHT22;5370;50.132;8.626;2022-10-14T02:26:05;14.70;99.90
10644;DHT22;5370;50.132;8.626;2022-10-14T02:28:31;14.70;99.90
10644;DHT22;5370;50.132;8.626;2022-10-14T02:31:01;14.70;99.90
10644;DHT22;5370;50.132;8.626;2022-10-14T02:33:32;14.70;99.90
10644;DHT22;5370;50.132;8.626;2022-10-14T02:35:59;14.70;99.90
10644;DHT22;5370;50.132;8.626;2022-10-14T02:38:27;14.70;99.90
10644;DHT22;5370;50.132;8.626;2022-10-14T02:40:53;14.70;99.90
10644;DHT22;5370;50.132;8.626;2022-10-14T02:43:19;14.70;99.90
10644;DHT22;5370;50.132;8.626;2022-10-14T02:45:45;14.80;99.90
10644;DHT22;5370;50.132;8.626;2022-10-14T02:48:11;14.70;99.90
10644;DHT22;5370;50.132;8.626;2022-10-14T02:50:37;14.80;99.90
10644;DHT22;5370;50.132;8.626;2022-10-14T02:53:03;14.70;99.90
10644;DHT22;5370;50.132;8.626;2022-10-14T02:55:28;14.80;99.90
10644;DHT22;5370;50.132;8.626;2022-10-14T02:57:54;14.70;99.90
10644;DHT22;5370;50.132;8.626;2022-10-14T03:00:20;14.70;99.90
10644;DHT22;5370;50.132;8.626;2022-10-14T03:02:47;14.70;99.90
10644;DHT22;5370;50.132;8.626;2022-10-14T03:05:13;14.70;99.90
10644;DHT22;5370;50.132;8.626;2022-10-14T03:07:39;14.70;99.90
10644;DHT22;5370;50.132;8.626;2022-10-14T03:10:05;14.70;99.90
10644;DHT22;5370;50.132;8.626;2022-10-14T03:12:31;14.70;99.90
10644;DHT22;5370;50.132;8.626;2022-10-14T03:14:57;14.70;99.90
10644;DHT22;5370;50.132;8.626;2022-10-14T03:17:23;14.70;99.90
10644;DHT22;5370;50.132;8.626;2022-10-14T03:19:49;14.70;99.90
10644;DHT22;5370;50.132;8.626;2022-10-14T03:22:15;14.70;99.90
10644;DHT22;5370;50.132;8.626;2022-10-14T03:24:40;14.70;99.90
10644;DHT22;5370;50.132;8.626;2022-10-14T03:27:06;14.70;99.90
10644;DHT22;5370;50.132;8.626;2022-10-14T03:29:32;14.70;99.90
10644;DHT22;5370;50.132;8.626;2022-10-14T03:31:57;14.70;99.90
10644;DHT22;5370;50.132;8.626;2022-10-14T03:34:23;14.70;99.90
10644;DHT22;5370;50.132;8.626;2022-10-14T03:36:48;14.70;99.90
10644;DHT22;5370;50.132;8.626;2022-10-14T03:39:14;14.70;99.90
10644;DHT22;5370;50.132;8.626;2022-10-14T03:41:39;14.70;99.90
10644;DHT22;5370;50.132;8.626;2022-10-14T03:44:05;14.60;99.90
10644;DHT22;5370;50.132;8.626;2022-10-14T03:46:30;14.70;99.90
10644;DHT22;5370;50.132;8.626;2022-10-14T03:48:56;14.70;99.90
10644;DHT22;5370;50.132;8.626;2022-10-14T03:51:22;14.70;99.90
10644;DHT22;5370;50.132;8.626;2022-10-14T03:53:48;14.70;99.90
10644;DHT22;5370;50.132;8.626;2022-10-14T03:56:14;14.70;99.90
10644;DHT22;5370;50.132;8.626;2022-10-14T03:58:39;14.70;99.90
10644;DHT22;5370;50.132;8.626;2022-10-14T04:01:05;14.70;99.90
10644;DHT22;5370;50.132;8.626;2022-10-14T04:03:30;14.70;99.90
10644;DHT22;5370;50.132;8.626;2022-10-14T04:05:56;14.70;99.90
10644;DHT22;5370;50.132;8.626;2022-10-14T04:08:21;14.80;99.90
10644;DHT22;5370;50.132;8.626;2022-10-14T04:10:52;14.80;99.90
10644;DHT22;5370;50.132;8.626;2022-10-14T04:13:17;14.80;99.90
10644;DHT22;5370;50.132;8.626;2022-10-14T04:15:43;14.80;99.90
10644;DHT22;5370;50.132;8.626;2022-10-14T04:18:09;14.80;99.90
10644;DHT22;5370;50.132;8.626;2022-10-14T04:20:35;14.80;99.90
10644;DHT22;5370;50.132;8.626;2022-10-14T04:23:01;14.80;99.90
10644;DHT22;5370;50.132;8.626;2022-10-14T04:25:26;14.80;99.90
10644;DHT22;5370;50.132;8.626;2022-10-14T04:27:52;14.80;99.90
10644;DHT22;5370;50.132;8.626;2022-10-14T04:30:17;14.90;99.90
10644;DHT22;5370;50.132;8.626;2022-10-14T04:32:43;14.80;99.90
10644;DHT22;5370;50.132;8.626;2022-10-14T04:35:08;14.80;99.90
10644;DHT22;5370;50.132;8.626;2022-10-14T04:37:34;14.80;99.90
10644;DHT22;5370;50.132;8.626;2022-10-14T04:40:00;14.80;99.90
10644;DHT22;5370;50.132;8.626;2022-10-14T04:42:25;14.80;99.90
10644;DHT22;5370;50.132;8.626;2022-10-14T04:44:51;14.80;99.90
10644;DHT22;5370;50.132;8.626;2022-10-14T04:47:16;14.80;99.90
10644;DHT22;5370;50.132;8.626;2022-10-14T04:49:42;14.90;99.90
10644;DHT22;5370;50.132;8.626;2022-10-14T04:52:07;14.90;99.90
10644;DHT22;5370;50.132;8.626;2022-10-14T04:54:33;14.90;99.90
10644;DHT22;5370;50.132;8.626;2022-10-14T04:56:58;14.90;99.90
10644;DHT22;5370;50.132;8.626;2022-10-14T04:59:24;14.90;99.90
10644;DHT22;5370;50.132;8.626;2022-10-14T05:01:49;14.90;99.90
10644;DHT22;5370;50.132;8.626;2022-10-14T05:04:15;14.90;99.90
10644;DHT22;5370;50.132;8.626;2022-10-14T05:06:40;14.90;99.90
10644;DHT22;5370;50.132;8.626;2022-10-14T05:09:06;14.90;99.90
10644;DHT22;5370;50.132;8.626;2022-10-14T05:11:32;14.90;99.90
10644;DHT22;5370;50.132;8.626;2022-10-14T05:13:58;14.90;99.90
10644;DHT22;5370;50.132;8.626;2022-10-14T05:16:24;14.90;99.90
10644;DHT22;5370;50.132;8.626;2022-10-14T05:18:51;14.90;99.90
10644;DHT22;5370;50.132;8.626;2022-10-14T05:21:17;14.90;99.90
10644;DHT22;5370;50.132;8.626;2022-10-14T05:23:42;14.90;99.90
10644;DHT22;5370;50.132;8.626;2022-10-14T05:26:08;14.90;99.90
10644;DHT22;5370;50.132;8.626;2022-10-14T05:28:35;14.90;99.90
10644;DHT22;5370;50.132;8.626;2022-10-14T05:31:03;14.90;99.90
10644;DHT22;5370;50.132;8.626;2022-10-14T05:33:29;14.90;99.90
10644;DHT22;5370;50.132;8.626;2022-10-14T05:35:54;15.00;99.90
10644;DHT22;5370;50.132;8.626;2022-10-14T05:38:20;15.00;99.90
10644;DHT22;5370;50.132;8.626;2022-10-14T05:40:55;14.90;99.90
10644;DHT22;5370;50.132;8.626;2022-10-14T05:43:22;15.00;99.90
10644;DHT22;5370;50.132;8.626;2022-10-14T05:45:49;14.90;99.90
10644;DHT22;5370;50.132;8.626;2022-10-14T05:48:14;14.90;99.90
10644;DHT22;5370;50.132;8.626;2022-10-14T05:50:41;15.00;99.90
10644;DHT22;5370;50.132;8.626;2022-10-14T05:53:07;14.90;99.90
10644;DHT22;5370;50.132;8.626;2022-10-14T05:55:33;14.90;99.90
10644;DHT22;5370;50.132;8.626;2022-10-14T05:57:58;14.90;99.90
10644;DHT22;5370;50.132;8.626;2022-10-14T06:00:24;14.90;99.90
10644;DHT22;5370;50.132;8.626;2022-10-14T06:02:50;14.90;99.90
10644;DHT22;5370;50.132;8.626;2022-10-14T06:05:15;14.90;99.90
10644;DHT22;5370;50.132;8.626;2022-10-14T06:07:41;14.90;99.90
10644;DHT22;5370;50.132;8.626;2022-10-14T06:10:07;15.00;99.90
10644;DHT22;5370;50.132;8.626;2022-10-14T06:12:35;15.00;99.90
10644;DHT22;5370;50.132;8.626;2022-10-14T06:15:00;15.00;99.90
10644;DHT22;5370;50.132;8.626;2022-10-14T06:17:27;15.00;99.90
10644;DHT22;5370;50.132;8.626;2022-10-14T06:19:52;15.10;99.90
10644;DHT22;5370;50.132;8.626;2022-10-14T06:22:18;15.10;99.90
10644;DHT22;5370;50.132;8.626;2022-10-14T06:24:43;15.10;99.90
10644;DHT22;5370;50.132;8.626;2022-10-14T06:27:09;15.10;99.90
10644;DHT22;5370;50.132;8.626;2022-10-14T06:29:34;15.10;99.90
10644;DHT22;5370;50.132;8.626;2022-10-14T06:32:06;15.20;99.90
10644;DHT22;5370;50.132;8.626;2022-10-14T06:34:32;15.20;99.90
10644;DHT22;5370;50.132;8.626;2022-10-14T06:36:58;15.20;99.90
10644;DHT22;5370;50.132;8.626;2022-10-14T06:39:24;15.20;99.90
10644;DHT22;5370;50.132;8.626;2022-10-14T06:41:49;15.30;99.90
10644;DHT22;5370;50.132;8.626;2022-10-14T06:44:15;15.30;99.90
10644;DHT22;5370;50.132;8.626;2022-10-14T06:46:41;15.40;99.90
10644;DHT22;5370;50.132;8.626;2022-10-14T06:49:07;15.50;99.90
10644;DHT22;5370;50.132;8.626;2022-10-14T06:51:33;15.50;99.90
10644;DHT22;5370;50.132;8.626;2022-10-14T06:53:58;15.60;99.90
10644;DHT22;5370;50.132;8.626;2022-10-14T06:56:24;15.60;99.90
10644;DHT22;5370;50.132;8.626;2022-10-14T06:58:53;15.60;99.90
10644;DHT22;5370;50.132;8.626;2022-10-14T07:01:20;15.70;99.90
10644;DHT22;5370;50.132;8.626;2022-10-14T07:03:45;15.70;99.90
10644;DHT22;5370;50.132;8.626;2022-10-14T07:06:11;15.80;99.90
10644;DHT22;5370;50.132;8.626;2022-10-14T07:08:36;15.80;99.90
10644;DHT22;5370;50.132;8.626;2022-10-14T07:11:03;15.90;99.90
10644;DHT22;5370;50.132;8.626;2022-10-14T07:13:28;15.90;99.90
10644;DHT22;5370;50.132;8.626;2022-10-14T07:15:54;16.00;99.90
10644;DHT22;5370;50.132;8.626;2022-10-14T07:18:20;16.00;99.90
10644;DHT22;5370;50.132;8.626;2022-10-14T07:20:46;16.00;99.90
10644;DHT22;5370;50.132;8.626;2022-10-14T07:23:12;16.00;99.90
10644;DHT22;5370;50.132;8.626;2022-10-14T07:25:37;16.00;99.90
10644;DHT22;5370;50.132;8.626;2022-10-14T07:28:03;16.00;99.90
10644;DHT22;5370;50.132;8.626;2022-10-14T07:30:29;16.00;99.90
10644;DHT22;5370;50.132;8.626;2022-10-14T07:32:55;16.00;99.90
10644;DHT22;5370;50.132;8.626;2022-10-14T07:35:20;16.00;99.90
10644;DHT22;5370;50.132;8.626;2022-10-14T07:37:47;16.00;99.90
10644;DHT22;5370;50.132;8.626;2022-10-14T07:40:12;16.10;99.90
10644;DHT22;5370;50.132;8.626;2022-10-14T07:42:38;16.10;99.90
10644;DHT22;5370;50.132;8.626;2022-10-14T07:45:05;16.10;99.90
10644;DHT22;5370;50.132;8.626;2022-10-14T07:47:31;16.10;99.90
10644;DHT22;5370;50.132;8.626;2022-10-14T07:49:59;16.20;99.90
10644;DHT22;5370;50.132;8.626;2022-10-14T07:52:25;16.20;99.90
10644;DHT22;5370;50.132;8.626;2022-10-14T07:54:50;16.20;99.90
10644;DHT22;5370;50.132;8.626;2022-10-14T07:57:16;16.20;99.90
10644;DHT22;5370;50.132;8.626;2022-10-14T07:59:42;16.30;99.90
10644;DHT22;5370;50.132;8.626;2022-10-14T08:02:09;16.30;99.90
10644;DHT22;5370;50.132;8.626;2022-10-14T08:04:35;16.30;99.90
10644;DHT22;5370;50.132;8.626;2022-10-14T08:07:01;16.30;99.90
10644;DHT22;5370;50.132;8.626;2022-10-14T08:09:29;16.30;99.90
10644;DHT22;5370;50.132;8.626;2022-10-14T08:11:54;16.20;99.90
10644;DHT22;5370;50.132;8.626;2022-10-14T08:14:20;16.20;99.90
10644;DHT22;5370;50.132;8.626;2022-10-14T08:16:45;16.10;99.90
10644;DHT22;5370;50.132;8.626;2022-10-14T08:19:11;16.10;99.90
10644;DHT22;5370;50.132;8.626;2022-10-14T08:21:38;16.10;99.90
10644;DHT22;5370;50.132;8.626;2022-10-14T08:24:04;16.10;99.90
10644;DHT22;5370;50.132;8.626;2022-10-14T08:26:38;16.10;99.90
10644;DHT22;5370;50.132;8.626;2022-10-14T08:29:10;16.10;99.90
10644;DHT22;5370;50.132;8.626;2022-10-14T08:31:36;16.10;99.90
10644;DHT22;5370;50.132;8.626;2022-10-14T08:34:01;16.20;99.90
10644;DHT22;5370;50.132;8.626;2022-10-14T08:36:27;16.20;99.90
10644;DHT22;5370;50.132;8.626;2022-10-14T08:38:53;16.30;99.90
10644;DHT22;5370;50.132;8.626;2022-10-14T08:41:25;16.40;99.90
10644;DHT22;5370;50.132;8.626;2022-10-14T08:44:21;16.60;99.90
10644;DHT22;5370;50.132;8.626;2022-10-14T08:46:54;16.70;99.90
10644;DHT22;5370;50.132;8.626;2022-10-14T08:49:36;16.70;99.90
10644;DHT22;5370;50.132;8.626;2022-10-14T08:52:30;16.80;99.90
10644;DHT22;5370;50.132;8.626;2022-10-14T08:55:01;16.90;99.90
10644;DHT22;5370;50.132;8.626;2022-10-14T08:57:34;16.90;99.80
10644;DHT22;5370;50.132;8.626;2022-10-14T09:00:03;16.90;99.50
10644;DHT22;5370;50.132;8.626;2022-10-14T09:02:41;16.90;99.20
10644;DHT22;5370;50.132;8.626;2022-10-14T09:05:14;16.80;99.10
10644;DHT22;5370;50.132;8.626;2022-10-14T09:07:40;16.80;99.10
10644;DHT22;5370;50.132;8.626;2022-10-14T09:10:11;16.80;99.10
10644;DHT22;5370;50.132;8.626;2022-10-14T09:12:39;16.80;99.10
10644;DHT22;5370;50.132;8.626;2022-10-14T09:15:18;16.70;99.40
10644;DHT22;5370;50.132;8.626;2022-10-14T09:18:16;16.70;99.30
10644;DHT22;5370;50.132;8.626;2022-10-14T09:20:39;16.80;99.80
10644;DHT22;5370;50.132;8.626;2022-10-14T09:23:22;16.90;99.90
10644;DHT22;5370;50.132;8.626;2022-10-14T09:26:10;16.90;99.90
10644;DHT22;5370;50.132;8.626;2022-10-14T09:28:42;17.00;99.90
10644;DHT22;5370;50.132;8.626;2022-10-14T09:31:11;17.10;99.90
10644;DHT22;5370;50.132;8.626;2022-10-14T09:33:37;17.10;99.90
10644;DHT22;5370;50.132;8.626;2022-10-14T09:36:17;17.20;99.90
10644;DHT22;5370;50.132;8.626;2022-10-14T09:38:46;17.20;99.90
10644;DHT22;5370;50.132;8.626;2022-10-14T09:41:13;17.30;99.90
10644;DHT22;5370;50.132;8.626;2022-10-14T09:46:51;17.40;99.40
10644;DHT22;5370;50.132;8.626;2022-10-14T09:49:23;17.40;99.20
10644;DHT22;5370;50.132;8.626;2022-10-14T09:51:52;17.40;98.90
10644;DHT22;5370;50.132;8.626;2022-10-14T09:54:23;17.50;99.40
10644;DHT22;5370;50.132;8.626;2022-10-14T09:57:02;17.60;99.60
10644;DHT22;5370;50.132;8.626;2022-10-14T09:59:28;17.70;99.60
10644;DHT22;5370;50.132;8.626;2022-10-14T10:01:59;17.70;99.40
10644;DHT22;5370;50.132;8.626;2022-10-14T10:06:53;17.90;98.30
10644;DHT22;5370;50.132;8.626;2022-10-14T10:09:19;18.00;98.30
10644;DHT22;5370;50.132;8.626;2022-10-14T10:11:45;18.00;98.10
10644;DHT22;5370;50.132;8.626;2022-10-14T10:14:24;18.10;97.80
10644;DHT22;5370;50.132;8.626;2022-10-14T10:17:16;18.30;97.50
10644;DHT22;5370;50.132;8.626;2022-10-14T10:19:45;18.40;97.10
10644;DHT22;5370;50.132;8.626;2022-10-14T10:22:24;18.60;96.50
10644;DHT22;5370;50.132;8.626;2022-10-14T10:27:33;19.00;95.50
10644;DHT22;5370;50.132;8.626;2022-10-14T10:43:26;19.60;91.50
10644;DHT22;5370;50.132;8.626;2022-10-14T10:45:57;19.60;91.40
10644;DHT22;5370;50.132;8.626;2022-10-14T10:48:29;19.50;91.90
10644;DHT22;5370;50.132;8.626;2022-10-14T10:59:17;19.50;91.70
10644;DHT22;5370;50.132;8.626;2022-10-14T11:07:58;19.40;91.20
10644;DHT22;5370;50.132;8.626;2022-10-14T11:10:56;19.40;91.00
10644;DHT22;5370;50.132;8.626;2022-10-14T11:20:04;19.00;90.00
10644;DHT22;5370;50.132;8.626;2022-10-14T11:22:49;18.90;89.80
10644;DHT22;5370;50.132;8.626;2022-10-14T11:25:41;18.80;90.10
10644;DHT22;5370;50.132;8.626;2022-10-14T11:28:32;18.70;90.10
10644;DHT22;5370;50.132;8.626;2022-10-14T11:31:04;18.60;90.30
10644;DHT22;5370;50.132;8.626;2022-10-14T11:44:33;18.30;92.10
10644;DHT22;5370;50.132;8.626;2022-10-14T11:47:24;18.40;92.10
10644;DHT22;5370;50.132;8.626;2022-10-14T11:52:55;18.30;92.00
10644;DHT22;5370;50.132;8.626;2022-10-14T11:55:23;18.30;92.10
10644;DHT22;5370;50.132;8.626;2022-10-14T11:57:51;18.30;92.20
10644;DHT22;5370;50.132;8.626;2022-10-14T12:00:23;18.30;92.20
10644;DHT22;5370;50.132;8.626;2022-10-14T12:05:47;18.20;92.40
10644;DHT22;5370;50.132;8.626;2022-10-14T12:11:04;18.30;92.50
10644;DHT22;5370;50.132;8.626;2022-10-14T12:14:22;18.30;92.50
10644;DHT22;5370;50.132;8.626;2022-10-14T12:16:28;18.30;92.40
10644;DHT22;5370;50.132;8.626;2022-10-14T12:18:56;18.30;92.20
10644;DHT22;5370;50.132;8.626;2022-10-14T12:21:37;18.30;92.10
10644;DHT22;5370;50.132;8.626;2022-10-14T12:24:11;18.20;92.10
10644;DHT22;5370;50.132;8.626;2022-10-14T12:26:51;18.10;92.20
10644;DHT22;5370;50.132;8.626;2022-10-14T12:29:41;18.10;92.30
10644;DHT22;5370;50.132;8.626;2022-10-14T12:34:52;17.90;92.70
10644;DHT22;5370;50.132;8.626;2022-10-14T12:43:04;17.80;93.30
10644;DHT22;5370;50.132;8.626;2022-10-14T12:45:35;17.70;93.30
10644;DHT22;5370;50.132;8.626;2022-10-14T12:48:20;17.70;93.60
10644;DHT22;5370;50.132;8.626;2022-10-14T12:50:48;17.70;93.80
10644;DHT22;5370;50.132;8.626;2022-10-14T12:53:22;17.70;94.00
10644;DHT22;5370;50.132;8.626;2022-10-14T12:55:53;17.70;94.50
10644;DHT22;5370;50.132;8.626;2022-10-14T12:58:37;17.60;94.20
10644;DHT22;5370;50.132;8.626;2022-10-14T13:01:16;17.70;94.20
10644;DHT22;5370;50.132;8.626;2022-10-14T13:03:45;17.60;94.00
10644;DHT22;5370;50.132;8.626;2022-10-14T13:06:35;17.50;94.00
10644;DHT22;5370;50.132;8.626;2022-10-14T13:14:28;17.30;94.40
10644;DHT22;5370;50.132;8.626;2022-10-14T13:19:46;17.20;94.80
10644;DHT22;5370;50.132;8.626;2022-10-14T13:25:32;17.20;95.10
10644;DHT22;5370;50.132;8.626;2022-10-14T13:30:30;17.10;95.40
10644;DHT22;5370;50.132;8.626;2022-10-14T13:33:14;17.20;95.90
10644;DHT22;5370;50.132;8.626;2022-10-14T13:36:03;17.20;95.70
10644;DHT22;5370;50.132;8.626;2022-10-14T13:38:33;17.20;95.90
10644;DHT22;5370;50.132;8.626;2022-10-14T13:40:59;17.20;96.20
10644;DHT22;5370;50.132;8.626;2022-10-14T13:43:35;17.30;96.40
10644;DHT22;5370;50.132;8.626;2022-10-14T13:46:06;17.30;96.30
10644;DHT22;5370;50.132;8.626;2022-10-14T13:48:36;17.40;96.10
10644;DHT22;5370;50.132;8.626;2022-10-14T13:51:38;17.40;96.10
10644;DHT22;5370;50.132;8.626;2022-10-14T13:54:14;17.40;96.00
10644;DHT22;5370;50.132;8.626;2022-10-14T13:56:40;17.30;96.00
10644;DHT22;5370;50.132;8.626;2022-10-14T13:59:20;17.30;96.10
10644;DHT22;5370;50.132;8.626;2022-10-14T14:01:49;17.20;96.10
10644;DHT22;5370;50.132;8.626;2022-10-14T14:04:25;17.20;96.20
10644;DHT22;5370;50.132;8.626;2022-10-14T14:06:52;17.20;96.30
10644;DHT22;5370;50.132;8.626;2022-10-14T14:09:28;17.10;96.40
10644;DHT22;5370;50.132;8.626;2022-10-14T14:11:58;17.10;96.70
10644;DHT22;5370;50.132;8.626;2022-10-14T14:14:34;17.10;96.90
10644;DHT22;5370;50.132;8.626;2022-10-14T14:17:02;17.10;97.10
10644;DHT22;5370;50.132;8.626;2022-10-14T14:19:31;17.10;97.30
10644;DHT22;5370;50.132;8.626;2022-10-14T14:22:13;17.10;97.50
10644;DHT22;5370;50.132;8.626;2022-10-14T14:24:40;17.10;97.60
10644;DHT22;5370;50.132;8.626;2022-10-14T14:27:12;17.10;97.80
10644;DHT22;5370;50.132;8.626;2022-10-14T14:29:43;17.10;98.00
10644;DHT22;5370;50.132;8.626;2022-10-14T14:32:22;17.10;98.20
10644;DHT22;5370;50.132;8.626;2022-10-14T14:34:50;17.10;98.40
10644;DHT22;5370;50.132;8.626;2022-10-14T14:37:26;17.10;98.50
10644;DHT22;5370;50.132;8.626;2022-10-14T14:40:03;17.20;98.80
10644;DHT22;5370;50.132;8.626;2022-10-14T14:42:32;17.20;98.90
10644;DHT22;5370;50.132;8.626;2022-10-14T14:45:03;17.30;99.00
10644;DHT22;5370;50.132;8.626;2022-10-14T14:47:30;17.30;98.90
10644;DHT22;5370;50.132;8.626;2022-10-14T14:49:57;17.40;98.80
10644;DHT22;5370;50.132;8.626;2022-10-14T14:52:25;17.40;98.60
10644;DHT22;5370;50.132;8.626;2022-10-14T14:54:52;17.40;98.60
10644;DHT22;5370;50.132;8.626;2022-10-14T14:57:19;17.40;98.50
10644;DHT22;5370;50.132;8.626;2022-10-14T15:00:04;17.50;98.50
10644;DHT22;5370;50.132;8.626;2022-10-14T15:02:32;17.40;98.30
10644;DHT22;5370;50.132;8.626;2022-10-14T15:05:07;17.40;98.30
10644;DHT22;5370;50.132;8.626;2022-10-14T15:07:33;17.40;98.40
10644;DHT22;5370;50.132;8.626;2022-10-14T15:10:02;17.40;98.50
10644;DHT22;5370;50.132;8.626;2022-10-14T15:12:34;17.30;98.60
10644;DHT22;5370;50.132;8.626;2022-10-14T15:15:04;17.20;98.60
10644;DHT22;5370;50.132;8.626;2022-10-14T15:20:34;17.20;98.90
10644;DHT22;5370;50.132;8.626;2022-10-14T15:23:00;17.20;99.20
10644;DHT22;5370;50.132;8.626;2022-10-14T15:25:30;17.10;99.20
10644;DHT22;5370;50.132;8.626;2022-10-14T15:27:57;17.00;99.40
10644;DHT22;5370;50.132;8.626;2022-10-14T15:33:15;17.00;99.90
10644;DHT22;5370;50.132;8.626;2022-10-14T15:35:41;16.90;99.90
10644;DHT22;5370;50.132;8.626;2022-10-14T15:38:10;16.90;99.90
10644;DHT22;5370;50.132;8.626;2022-10-14T15:40:36;16.90;99.90
10644;DHT22;5370;50.132;8.626;2022-10-14T15:43:08;16.90;99.90
10644;DHT22;5370;50.132;8.626;2022-10-14T15:45:35;16.90;99.90
10644;DHT22;5370;50.132;8.626;2022-10-14T15:48:04;16.90;99.90
10644;DHT22;5370;50.132;8.626;2022-10-14T15:50:30;16.90;99.90
10644;DHT22;5370;50.132;8.626;2022-10-14T15:52:56;16.90;99.90
10644;DHT22;5370;50.132;8.626;2022-10-14T15:55:27;16.90;99.90
10644;DHT22;5370;50.132;8.626;2022-10-14T15:57:54;16.90;99.90
10644;DHT22;5370;50.132;8.626;2022-10-14T16:00:21;16.80;99.90
10644;DHT22;5370;50.132;8.626;2022-10-14T16:02:50;16.90;99.90
10644;DHT22;5370;50.132;8.626;2022-10-14T16:05:17;16.90;99.90
10644;DHT22;5370;50.132;8.626;2022-10-14T16:07:44;16.90;99.90
10644;DHT22;5370;50.132;8.626;2022-10-14T16:10:14;16.90;99.90
10644;DHT22;5370;50.132;8.626;2022-10-14T16:12:40;16.90;99.90
10644;DHT22;5370;50.132;8.626;2022-10-14T16:15:18;16.90;99.90
10644;DHT22;5370;50.132;8.626;2022-10-14T16:17:44;16.90;99.90
10644;DHT22;5370;50.132;8.626;2022-10-14T16:20:10;16.80;99.90
10644;DHT22;5370;50.132;8.626;2022-10-14T16:22:37;16.80;99.90
10644;DHT22;5370;50.132;8.626;2022-10-14T16:25:03;16.80;99.90
10644;DHT22;5370;50.132;8.626;2022-10-14T16:27:28;16.80;99.90
10644;DHT22;5370;50.132;8.626;2022-10-14T16:29:54;16.80;99.90
10644;DHT22;5370;50.132;8.626;2022-10-14T16:32:19;16.80;99.90
10644;DHT22;5370;50.132;8.626;2022-10-14T16:34:45;16.80;99.90
10644;DHT22;5370;50.132;8.626;2022-10-14T16:37:10;16.80;99.90
10644;DHT22;5370;50.132;8.626;2022-10-14T16:39:36;16.80;99.90
10644;DHT22;5370;50.132;8.626;2022-10-14T16:42:02;16.80;99.90
10644;DHT22;5370;50.132;8.626;2022-10-14T16:44:27;16.80;99.90
10644;DHT22;5370;50.132;8.626;2022-10-14T16:46:54;16.80;99.90
10644;DHT22;5370;50.132;8.626;2022-10-14T16:49:38;16.90;99.90
10644;DHT22;5370;50.132;8.626;2022-10-14T16:52:05;16.80;99.90
10644;DHT22;5370;50.132;8.626;2022-10-14T16:54:31;16.80;99.90
10644;DHT22;5370;50.132;8.626;2022-10-14T16:56:57;16.80;99.90
10644;DHT22;5370;50.132;8.626;2022-10-14T16:59:23;16.80;99.90
10644;DHT22;5370;50.132;8.626;2022-10-14T17:01:50;16.80;99.90
10644;DHT22;5370;50.132;8.626;2022-10-14T17:04:16;16.80;99.90
10644;DHT22;5370;50.132;8.626;2022-10-14T17:06:46;16.80;99.90
10644;DHT22;5370;50.132;8.626;2022-10-14T17:09:12;16.80;99.90
10644;DHT22;5370;50.132;8.626;2022-10-14T17:11:38;16.80;99.90
10644;DHT22;5370;50.132;8.626;2022-10-14T17:14:05;16.80;99.90
10644;DHT22;5370;50.132;8.626;2022-10-14T17:16:31;16.80;99.90
10644;DHT22;5370;50.132;8.626;2022-10-14T17:18:57;16.80;99.90
10644;DHT22;5370;50.132;8.626;2022-10-14T17:21:24;16.80;99.90
10644;DHT22;5370;50.132;8.626;2022-10-14T17:23:54;16.70;99.90
10644;DHT22;5370;50.132;8.626;2022-10-14T17:26:22;16.70;99.90
10644;DHT22;5370;50.132;8.626;2022-10-14T17:28:48;16.70;99.90
10644;DHT22;5370;50.132;8.626;2022-10-14T17:31:15;16.70;99.90
10644;DHT22;5370;50.132;8.626;2022-10-14T17:33:42;16.70;99.90
10644;DHT22;5370;50.132;8.626;2022-10-14T17:36:20;16.70;99.90
10644;DHT22;5370;50.132;8.626;2022-10-14T17:38:47;16.70;99.90
10644;DHT22;5370;50.132;8.626;2022-10-14T17:41:15;16.70;99.90
10644;DHT22;5370;50.132;8.626;2022-10-14T17:43:41;16.70;99.90
10644;DHT22;5370;50.132;8.626;2022-10-14T17:46:08;16.70;99.90
10644;DHT22;5370;50.132;8.626;2022-10-14T17:48:36;16.70;99.90
10644;DHT22;5370;50.132;8.626;2022-10-14T17:51:02;16.70;99.90
10644;DHT22;5370;50.132;8.626;2022-10-14T17:53:28;16.70;99.90
10644;DHT22;5370;50.132;8.626;2022-10-14T17:55:53;16.60;99.90
10644;DHT22;5370;50.132;8.626;2022-10-14T17:58:21;16.60;99.90